Temp     Hi    Low   Out    Dew  Wind  Wind   Wind    Hi    Hi   Wind   Heat    THW                Rain    Heat    Cool    In     In    In     In   Wind  Wind    ISS   Arc.
  Date    Time     Out   Temp   Temp   Hum    Pt. Speed   Dir    Run Speed   Dir  Chill  Index  Index   Bar    Rain  Rate    D-D     D-D    Temp   Hum    Dew   Heat  Samp   Tx   Recept  Int.
------------------------------------------------------------------------------------------------------------------------------------------------------------------------------------------------
12/01/22 12:30a   48.9   51.4   48.9    39   25.0   0.0   ---   0.00   0.0   ---   48.9   47.4   47.4  29.847  0.00  0.00   0.335   0.000   76.8    18   30.1   75.1   670    2    100.0   30 
12/01/22  1:00a   50.7   50.7   47.9    36   24.7   0.0   ---   0.00   0.0   ---   50.7   48.9   48.9  29.837  0.00  0.00   0.298   0.000   76.4    18   29.7   74.5   666    2     99.9   30 
12/01/22  1:30a   50.4   51.4   50.4    37   25.1   0.0   ---   0.00   0.0   ---   50.4   48.7   48.7  29.822  0.00  0.00   0.304   0.000   76.3    18   29.7   74.3   666    2     99.9   30 
12/01/22  2:00a   52.0   52.0   50.1    36   25.8   0.0   ---   0.00   0.0   ---   52.0   49.9   49.9  29.818  0.00  0.00   0.271   0.000   76.1    18   29.5   74.0    92    2     13.8   30 
12/01/22  2:30a   51.9   52.2   51.9    36   25.8   0.0   ---   0.00   0.0   ---   51.9   49.9   49.9  29.831  0.00  0.00   0.273   0.000   75.9    18   29.3   73.7     0    2      0.0   30 
12/01/22  3:00a   51.0   52.0   51.0    37   25.6   0.0   ---   0.00   0.0   ---   51.0   49.2   49.2  29.830  0.00  0.00   0.292   0.000   75.6    18   29.1   73.3     0    2      0.0   30 
12/01/22  3:30a   49.2   51.0   49.2    39   25.3   0.0   ---   0.00   0.0   ---   49.2   47.7   47.7  29.846  0.00  0.00   0.329   0.000   75.4    18   28.9   73.0     0    2      0.0   30 
12/01/22  4:00a   48.5   49.2   48.5    41   25.8   0.0   ---   0.00   0.0   ---   48.5   47.0   47.0  29.846  0.00  0.00   0.344   0.000   75.4    18   28.9   73.0     0    2      0.0   30 
12/01/22  4:30a   49.5   49.5   48.3    41   26.7   0.0   ---   0.00   0.0   ---   49.5   48.0   48.0  29.859  0.00  0.00   0.323   0.000   75.0    18   28.6   72.3     0    2      0.0   30 
12/01/22  5:00a   49.4   49.6   49.4    43   27.8   0.0   ---   0.00   0.0   ---   49.4   48.0   48.0  29.860  0.00  0.00   0.325   0.000   74.9    18   28.5   72.2     0    2      0.0   30 
12/01/22  5:30a   49.9   50.1   49.2    43   28.3   0.0   ---   0.00   0.0   ---   49.9   48.5   48.5  29.885  0.00  0.00   0.315   0.000   74.9    18   28.5   72.2     0    2      0.0   30 
12/01/22  6:00a   46.5   49.9   46.5    48   27.8   0.0   ---   0.00   0.0   ---   46.5   45.3   45.3  29.905  0.00  0.00   0.385   0.000   75.0    18   28.6   72.3     0    2      0.0   30 
12/01/22  6:30a   46.4   46.4   44.5    48   27.8   0.0   ---   0.00   0.0   ---   46.4   45.2   45.2  29.939  0.00  0.00   0.387   0.000   74.5    18   28.2   71.5     0    2      0.0   30 
12/01/22  7:00a   49.5   50.4   46.5    43   27.9   0.0   ---   0.00   0.0   ---   49.5   48.1   48.1  29.929  0.00  0.00   0.323   0.000   74.3    18   28.0   71.2   144    2     21.6   30 
12/01/22  7:30a   54.8   54.8   49.5    35   27.6   0.0   ---   0.00   0.0   ---   54.8   52.2   52.2  29.925  0.00  0.00   0.213   0.000   75.4    18   28.9   73.0   666    2     99.9   30 
12/01/22  8:00a   58.7   58.7   54.8    32   28.9   0.0   ---   0.00   0.0   ---   58.7   55.5   55.5  29.922  0.00  0.00   0.131   0.000   76.1    18   29.5   74.0   671    2    100.0   30 
12/01/22  8:30a   61.2   61.2   58.7    30   29.5   0.0   ---   0.00   0.0   ---   61.2   57.6   57.6  29.938  0.00  0.00   0.079   0.000   75.9    18   29.3   73.7   673    2    100.0   30 
12/01/22  9:00a   65.5   65.5   61.3    27   30.6   0.0   ---   0.00   0.0   ---   65.5   61.3   61.3  29.923  0.00  0.00   0.000   0.010   76.1    18   29.5   74.0   668    2    100.0   30 
12/01/22  9:30a   67.3   67.8   65.6    24   29.2   0.0   ---   0.00   0.0   ---   67.3   62.7   62.7  29.928  0.00  0.00   0.000   0.048   76.3    18   29.7   74.3   641    2     96.1   30 
12/01/22 10:00a   68.4   68.4   67.3    23   29.1   0.0   ---   0.00   0.0   ---   68.4   64.0   64.0  29.920  0.00  0.00   0.000   0.071   76.4    19   31.1   74.6   661    2     99.1   30 
12/01/22 10:30a   69.8   69.8   68.3    20   26.9   0.0   ---   0.00   0.0   ---   69.8   65.3   65.3  29.919  0.00  0.00   0.000   0.100   76.6    19   31.2   74.9   661    2     99.1   30 
12/01/22 11:00a   71.3   71.3   69.8    17   24.2   0.0   ---   0.00   0.0   ---   71.3   66.9   66.9  29.907  0.00  0.00   0.000   0.131   77.0    18   30.2   75.4   662    2     99.3   30 
12/01/22 11:30a   71.8   72.0   70.4    18   26.0   0.0   ---   0.00   0.0   ---   71.8   67.6   67.6  29.882  0.00  0.00   0.000   0.142   77.3    18   30.5   75.5   663    2     99.4   30 
12/01/22 12:00p   72.7   72.8   71.8    17   25.3   0.0   ---   0.00   0.0   ---   72.7   68.9   68.9  29.859  0.00  0.00   0.000   0.160   77.7    19   32.1   75.7   656    2     98.4   30 
12/01/22 12:30p   72.8   73.9   72.7    17   25.4   0.0   ---   0.00   0.0   ---   72.8   69.1   69.1  29.848  0.00  0.00   0.000   0.163   78.0    19   32.4   75.8   656    2     98.4   30 
12/01/22  1:00p   72.5   73.0   72.1    17   25.2   0.0   ---   0.00   0.0   ---   72.5   68.6   68.6  29.848  0.00  0.00   0.000   0.156   78.4    19   32.7   75.9   649    2     97.3   30 
12/01/22  1:30p   73.2   73.2   72.5    16   24.3   0.0   ---   0.00   0.0   ---   73.2   69.5   69.5  29.837  0.00  0.00   0.000   0.171   78.8    19   33.0   76.0   646    2     96.9   30 
12/01/22  2:00p   73.5   73.5   73.0    15   23.0   0.0   ---   0.00   0.0   ---   73.5   69.8   69.8  29.827  0.00  0.00   0.000   0.177   79.0    19   33.2   76.0   641    2     96.1   30 
12/01/22  2:30p   73.3   74.0   73.2    13   19.4   0.0   ---   0.00   0.0   ---   73.3   69.3   69.3  29.826  0.00  0.00   0.000   0.173   79.3    19   33.4   76.3   640    2     96.0   30 
12/01/22  3:00p   71.8   73.5   71.8    13   18.3   0.0   ---   0.00   0.0   ---   71.8   67.2   67.2  29.828  0.00  0.00   0.000   0.142   79.5    19   33.6   76.4   643    2     96.4   30 
12/01/22  3:30p   70.1   71.8   70.1    14   18.6   0.0   ---   0.00   0.0   ---   70.1   65.0   65.0  29.839  0.00  0.00   0.000   0.106   79.7    19   33.8   76.6   633    2     94.9   30 
12/01/22  4:00p   69.4   70.4   69.4    16   21.2   0.0   ---   0.00   0.0   ---   69.4   64.4   64.4  29.845  0.00  0.00   0.000   0.092   80.1    19   34.1   77.0   620    2     93.0   30 
12/01/22  4:30p   67.8   69.4   67.8    17   21.4   0.0   ---   0.00   0.0   ---   67.8   62.6   62.6  29.858  0.00  0.00   0.000   0.058   80.1    19   34.1   77.0   644    2     96.6   30 
12/01/22  5:00p   65.6   67.8   65.6    20   23.4   0.0   ---   0.00   0.0   ---   65.6   60.5   60.5  29.877  0.00  0.00   0.000   0.012   80.1    19   34.1   77.0   634    2     95.1   30 
12/01/22  5:30p   63.5   65.6   63.5    21   22.8   0.0   ---   0.00   0.0   ---   63.5   58.6   58.6  29.889  0.00  0.00   0.031   0.000   79.9    19   33.9   76.8   615    2     92.2   30 
12/01/22  6:00p   61.6   63.5   61.6    23   23.4   0.0   ---   0.00   0.0   ---   61.6   57.1   57.1  29.902  0.00  0.00   0.071   0.000   79.9    19   33.9   76.8   610    2     91.5   30 
12/01/22  6:30p   60.4   61.6   60.4    22   21.3   0.0   ---   0.00   0.0   ---   60.4   56.0   56.0  29.897  0.00  0.00   0.096   0.000   79.7    19   33.8   76.6   618    2     92.7   30 
12/01/22  7:00p   60.5   60.7   60.4    22   21.4   0.0   ---   0.00   0.0   ---   60.5   56.0   56.0  29.903  0.00  0.00   0.094   0.000   79.7    19   33.8   76.6   621    2     93.1   30 
12/01/22  7:30p   58.9   60.7   58.9    25   23.1   0.0   ---   0.00   0.0   ---   58.9   54.8   54.8  29.883  0.00  0.00   0.127   0.000   79.5    19   33.6   76.4   629    2     94.3   30 
12/01/22  8:00p   57.0   58.9   57.0    28   24.2   0.0   ---   0.00   0.0   ---   57.0   53.6   53.6  29.894  0.00  0.00   0.167   0.000   79.7    19   33.8   76.6   629    2     94.3   30 
12/01/22  8:30p   56.5   57.0   56.5    29   24.6   0.0   ---   0.00   0.0   ---   56.5   53.2   53.2  29.878  0.00  0.00   0.177   0.000   79.7    19   33.8   76.6   621    2     93.1   30 
12/01/22  9:00p   55.7   56.5   55.6    30   24.7   0.0   ---   0.00   0.0   ---   55.7   52.7   52.7  29.880  0.00  0.00   0.194   0.000   79.7    19   33.8   76.6   604    2     90.6   30 
12/01/22  9:30p   57.2   57.2   55.7    28   24.3   0.0   ---   0.00   0.0   ---   57.2   53.7   53.7  29.876  0.00  0.00   0.162   0.000   79.5    19   33.6   76.4   614    2     92.1   30 
12/01/22 10:00p   57.0   57.2   56.7    28   24.2   0.0   ---   0.00   0.0   ---   57.0   53.6   53.6  29.877  0.00  0.00   0.167   0.000   79.3    19   33.4   76.3   625    2     93.7   30 
12/01/22 10:30p   57.6   57.8   57.0    28   24.7   0.0   ---   0.00   0.0   ---   57.6   54.1   54.1  29.866  0.00  0.00   0.154   0.000   79.2    19   33.4   76.2   629    2     94.3   30 
12/01/22 11:00p   57.5   58.0   57.5    26   22.8   0.0   ---   0.00   0.0   ---   57.5   53.8   53.8  29.868  0.00  0.00   0.156   0.000   79.0    19   33.2   76.0   635    2     95.2   30 
12/01/22 11:30p   56.0   57.5   56.0    26   21.6   0.0   ---   0.00   0.0   ---   56.0   52.5   52.5  29.864  0.00  0.00   0.188   0.000   78.8    19   33.0   76.0   627    2     94.0   30 
12/02/22 12:00a   53.9   56.0   53.9    26   19.8   0.0   ---   0.00   0.0   ---   53.9   50.9   50.9  29.872  0.00  0.00   0.231   0.000   78.4    19   32.7   75.9   632    2     94.8   30 
12/02/22 12:30a   51.7   53.9   51.7    31   22.0   0.0   ---   0.00   0.0   ---   51.7   49.4   49.4  29.881  0.00  0.00   0.277   0.000   78.2    19   32.5   75.8   626    2     93.9   30 
12/02/22  1:00a   50.8   51.7   50.8    33   22.7   0.0   ---   0.00   0.0   ---   50.8   48.9   48.9  29.893  0.00  0.00   0.296   0.000   78.0    19   32.4   75.8   637    2     95.5   30 
12/02/22  1:30a   50.1   50.8   50.1    31   20.6   0.0   ---   0.00   0.0   ---   50.1   48.2   48.2  29.897  0.00  0.00   0.310   0.000   77.9    19   32.3   75.8   615    2     92.2   30 
12/02/22  2:00a   49.2   50.1   49.2    31   19.8   0.0   ---   0.00   0.0   ---   49.2   47.3   47.3  29.905  0.00  0.00   0.329   0.000   77.9    18   31.0   75.7     0    2      0.0   30 
12/02/22  2:30a   46.2   49.2   46.2    36   20.7   0.0   ---   0.00   0.0   ---   46.2   44.6   44.6  29.918  0.00  0.00   0.392   0.000   77.5    18   30.6   75.5     0    2      0.0   30 
12/02/22  3:00a   45.7   46.2   45.5    38   21.5   0.0   ---   0.00   0.0   ---   45.7   44.2   44.2  29.922  0.00  0.00   0.402   0.000   77.0    18   30.2   75.4     0    2      0.0   30 
12/02/22  3:30a   46.2   46.8   45.7    39   22.6   0.0   ---   0.00   0.0   ---   46.2   44.7   44.7  29.932  0.00  0.00   0.392   0.000   76.6    18   29.9   74.8     0    2      0.0   30 
12/02/22  4:00a   46.1   46.2   44.9    43   24.8   0.0   ---   0.00   0.0   ---   46.1   44.7   44.7  29.934  0.00  0.00   0.394   0.000   76.4    18   29.7   74.5     0    1      0.0   30 
12/02/22  4:30a   45.8   46.8   45.8    45   25.6   0.0   ---   0.00   0.0   ---   45.8   44.5   44.5  29.941  0.00  0.00   0.400   0.000   76.4    18   29.7   74.5     0    1      0.0   30 
12/02/22  5:00a   46.0   46.4   45.8    46   26.4   0.0   ---   0.00   0.0   ---   46.0   44.7   44.7  29.946  0.00  0.00   0.396   0.000   75.9    18   29.3   73.7     0    1      0.0   30 
12/02/22  5:30a   44.6   46.0   44.6    50   27.1   0.0   ---   0.00   0.0   ---   44.6   43.5   43.5  29.976  0.00  0.00   0.425   0.000   75.7    18   29.2   73.4     0    1      0.0   30 
12/02/22  6:00a   43.2   44.6   43.2    54   27.7   0.0   ---   0.00   0.0   ---   43.2   42.2   42.2  29.989  0.00  0.00   0.454   0.000   75.6    18   29.1   73.3     0    1      0.0   30 
12/02/22  6:30a   43.1   43.2   43.1    55   28.0   0.0   ---   0.00   0.0   ---   43.1   42.1   42.1  29.998  0.00  0.00   0.456   0.000   75.4    18   28.9   73.0     0    1      0.0   30 
12/02/22  7:00a   44.1   44.1   42.9    56   29.4   0.0   ---   0.00   0.0   ---   44.1   43.1   43.1  30.000  0.00  0.00   0.435   0.000   75.0    18   28.6   72.3     0    1      0.0   30 
12/02/22  7:30a   48.8   48.8   44.1    49   30.5   0.0   ---   0.00   0.0   ---   48.8   47.6   47.6  30.009  0.00  0.00   0.338   0.000   74.7    18   28.3   71.9   644    1     94.2   30 
12/02/22  8:00a   56.3   56.3   48.9    39   31.6   0.0   ---   0.00   0.0   ---   56.3   53.7   53.7  29.989  0.00  0.00   0.181   0.000   74.7    18   28.3   71.9   677    1     99.0   30 
12/02/22  8:30a   61.0   61.0   56.3    33   31.7   0.0   ---   0.00   0.0   ---   61.0   57.6   57.6  29.981  0.00  0.00   0.083   0.000   74.7    19   29.7   72.0   672    1     98.2   30 
12/02/22  9:00a   64.0   64.0   61.0    29   31.1   0.0   ---   0.00   0.0   ---   64.0   60.1   60.1  29.976  0.00  0.00   0.021   0.000   74.9    19   29.8   72.3   659    1     96.3   30 
12/02/22  9:30a   67.9   67.9   64.0    27   32.7   0.0   ---   0.00   0.0   ---   67.9   63.9   63.9  29.963  0.00  0.00   0.000   0.060   75.0    19   29.9   72.4   647    1     94.6   30 
12/02/22 10:00a   68.3   69.1   67.9    27   33.0   0.0   ---   0.00   0.0   ---   68.3   64.3   64.3  29.960  0.00  0.00   0.000   0.069   75.6    19   30.4   73.4   642    1     93.9   30 
12/02/22 10:30a   68.6   68.6   67.8    24   30.3   0.0   ---   0.00   0.0   ---   68.6   64.3   64.3  29.956  0.00  0.00   0.000   0.075   75.9    19   30.7   73.8   639    1     93.4   30 
12/02/22 11:00a   69.4   69.8   68.4    24   31.0   0.0   ---   0.00   0.0   ---   69.4   65.1   65.1  29.954  0.00  0.00   0.000   0.092   76.4    19   31.1   74.6   638    1     93.3   30 
12/02/22 11:30a   70.3   70.3   69.4    24   31.8   0.0   ---   0.00   0.0   ---   70.3   66.2   66.2  29.947  0.00  0.00   0.000   0.110   76.8    19   31.4   75.2   665    1     97.2   30 
12/02/22 12:00p   70.6   70.8   70.3    23   31.0   0.0   ---   0.00   0.0   ---   70.6   66.6   66.6  29.931  0.00  0.00   0.000   0.117   77.2    19   31.7   75.5   641    1     93.7   30 
12/02/22 12:30p   71.3   71.3   70.3    22   30.5   0.0   ---   0.00   0.0   ---   71.3   67.4   67.4  29.930  0.00  0.00   0.000   0.131   77.7    19   32.1   75.7   621    1     90.8   30 
12/02/22  1:00p   72.3   72.3   71.3    19   27.7   0.0   ---   0.00   0.0   ---   72.3   68.5   68.5  29.917  0.00  0.00   0.000   0.152   77.9    19   32.3   75.8   637    1     93.1   30 
12/02/22  1:30p   73.5   73.5   72.3    19   28.7   0.0   ---   0.00   0.0   ---   73.5   70.2   70.2  29.917  0.00  0.00   0.000   0.177   78.2    20   33.8   75.9   638    1     93.3   30 
12/02/22  2:00p   73.0   73.5   73.0    19   28.3   0.0   ---   0.00   0.0   ---   73.0   69.6   69.6  29.918  0.00  0.00   0.000   0.167   78.6    20   34.2   76.0   649    1     94.9   30 
12/02/22  2:30p   72.3   73.0   72.3    19   27.7   0.0   ---   0.00   0.0   ---   72.3   68.5   68.5  29.933  0.00  0.00   0.000   0.152   79.0    19   33.2   76.0   647    1     94.6   30 
12/02/22  3:00p   70.3   72.3   70.3    21   28.5   0.0   ---   0.00   0.0   ---   70.3   66.0   66.0  29.948  0.00  0.00   0.000   0.110   79.3    19   33.4   76.3   650    1     95.0   30 
12/02/22  3:30p   69.1   70.3   69.1    22   28.6   0.0   ---   0.00   0.0   ---   69.1   64.6   64.6  29.962  0.00  0.00   0.000   0.085   79.5    20   34.9   76.6   645    1     94.3   30 
12/02/22  4:00p   68.1   69.1   68.1    22   27.8   0.0   ---   0.00   0.0   ---   68.1   63.5   63.5  29.965  0.00  0.00   0.000   0.065   79.7    19   33.8   76.6   645    1     94.3   30 
12/02/22  4:30p   66.3   68.1   66.3    23   27.4   0.0   ---   0.00   0.0   ---   66.3   61.4   61.4  29.987  0.00  0.00   0.000   0.027   79.9    20   35.2   76.9   617    1     90.2   30 
12/02/22  5:00p   63.1   66.3   63.1    26   27.6   0.0   ---   0.00   0.0   ---   63.1   58.8   58.8  30.004  0.00  0.00   0.040   0.000   79.9    20   35.2   76.9   628    1     91.8   30 
12/02/22  5:30p   59.5   63.1   59.5    27   25.5   0.0   ---   0.00   0.0   ---   59.5   55.6   55.6  30.039  0.00  0.00   0.115   0.000   79.7    20   35.1   76.7   636    1     93.0   30 
12/02/22  6:00p   56.2   59.5   56.2    33   27.4   0.0   ---   0.00   0.0   ---   56.2   53.3   53.3  30.060  0.00  0.00   0.183   0.000   79.7    20   35.1   76.7   635    1     92.8   30 
12/02/22  6:30p   54.4   56.2   54.4    35   27.3   0.0   ---   0.00   0.0   ---   54.4   51.9   51.9  30.071  0.00  0.00   0.221   0.000   79.7    20   35.1   76.7   634    1     92.7   30 
12/02/22  7:00p   52.5   54.4   52.5    37   26.9   0.0   ---   0.00   0.0   ---   52.5   50.4   50.4  30.083  0.00  0.00   0.260   0.000   79.5    19   33.6   76.4   627    1     91.7   30 
12/02/22  7:30p   50.8   52.5   50.8    39   26.7   0.0   ---   0.00   0.0   ---   50.8   49.1   49.1  30.051  0.00  0.00   0.296   0.000   79.3    19   33.4   76.3   618    1     90.4   30 
12/02/22  8:00p   50.7   50.8   50.4    41   27.8   0.0   ---   0.00   0.0   ---   50.7   49.1   49.1  30.060  0.00  0.00   0.298   0.000   79.2    19   33.4   76.2   631    1     92.3   30 
12/02/22  8:30p   51.3   51.3   50.4    40   27.8   0.0   ---   0.00   0.0   ---   51.3   49.5   49.5  30.025  0.00  0.00   0.285   0.000   79.0    19   33.2   76.0   642    1     93.9   30 
12/02/22  9:00p   52.0   52.2   51.3    39   27.8   0.0   ---   0.00   0.0   ---   52.0   50.1   50.1  30.023  0.00  0.00   0.271   0.000   78.6    19   32.9   75.9   621    1     90.8   30 
12/02/22  9:30p   52.0   52.0   51.7    40   28.4   0.0   ---   0.00   0.0   ---   52.0   50.1   50.1  30.007  0.00  0.00   0.271   0.000   78.6    19   32.9   75.9   638    1     93.3   30 
12/02/22 10:00p   53.5   53.6   52.0    39   29.1   0.0   ---   0.00   0.0   ---   53.5   51.3   51.3  29.996  0.00  0.00   0.240   0.000   78.4    19   32.7   75.9   636    1     93.0   30 
12/02/22 10:30p   53.6   53.6   53.3    43   31.6   0.0   ---   0.00   0.0   ---   53.6   51.6   51.6  30.003  0.00  0.00   0.238   0.000   78.0    19   32.4   75.8   614    1     89.8   30 
12/02/22 11:00p   56.5   56.5   53.6    47   36.5   0.0   ---   0.00   0.0   ---   56.5   54.4   54.4  29.994  0.00  0.00   0.177   0.000   78.0    19   32.4   75.8   632    1     92.4   30 
12/02/22 11:30p   56.6   57.5   56.5    48   37.1   0.0   ---   0.00   0.0   ---   56.6   54.6   54.6  29.983  0.00  0.00   0.175   0.000   77.9    19   32.3   75.8   624    1     91.2   30 
12/03/22 12:00a   55.1   56.6   55.1    50   36.8   0.0   ---   0.00   0.0   ---   55.1   53.3   53.3  29.987  0.00  0.00   0.206   0.000   77.9    19   32.3   75.8   622    1     90.9   30 
12/03/22 12:30a   55.1   55.7   54.7    48   35.7   0.0   ---   0.00   0.0   ---   55.1   53.2   53.2  29.989  0.00  0.00   0.206   0.000   77.7    19   32.1   75.7   624    1     91.2   30 
12/03/22  1:00a   55.1   55.4   54.5    49   36.3   0.0   ---   0.00   0.0   ---   55.1   53.2   53.2  29.987  0.00  0.00   0.206   0.000   77.5    19   32.0   75.6   605    1     88.5   30 
12/03/22  1:30a   55.3   55.7   55.1    51   37.5   0.0   ---   0.00   0.0   ---   55.3   53.5   53.5  29.978  0.00  0.00   0.202   0.000   77.5    19   32.0   75.6   610    1     89.2   30 
12/03/22  2:00a   54.8   55.4   54.8    52   37.5   0.0   ---   0.00   0.0   ---   54.8   53.1   53.1  29.979  0.00  0.00   0.213   0.000   77.5    19   32.0   75.6   155    1     22.7   30 
12/03/22  2:30a   54.4   54.8   54.4    51   36.6   0.0   ---   0.00   0.0   ---   54.4   52.7   52.7  29.995  0.00  0.00   0.221   0.000   77.2    19   31.7   75.5     0    1      0.0   30 
12/03/22  3:00a   55.0   55.0   54.4    54   38.6   0.0   ---   0.00   0.0   ---   55.0   53.4   53.4  30.001  0.00  0.00   0.208   0.000   77.3    19   31.8   75.5     0    1      0.0   30 
12/03/22  3:30a   54.8   55.0   54.7    58   40.3   0.0   ---   0.00   0.0   ---   54.8   53.4   53.4  30.008  0.00  0.00   0.213   0.000   77.2    19   31.7   75.5     0    1      0.0   30 
12/03/22  4:00a   54.1   55.0   54.1    61   40.9   0.0   ---   0.00   0.0   ---   54.1   52.9   52.9  29.999  0.00  0.00   0.227   0.000   76.8    20   32.7   75.2     0    1      0.0   30 
12/03/22  4:30a   54.2   54.4   53.8    58   39.7   0.0   ---   0.00   0.0   ---   54.2   52.9   52.9  30.023  0.00  0.00   0.225   0.000   76.8    20   32.7   75.2     0    1      0.0   30 
12/03/22  5:00a   53.3   54.2   53.3    61   40.2   0.0   ---   0.00   0.0   ---   53.3   52.2   52.2  30.024  0.00  0.00   0.244   0.000   76.8    20   32.7   75.2     0    1      0.0   30 
12/03/22  5:30a   54.2   54.2   53.2    56   38.8   0.0   ---   0.00   0.0   ---   54.2   52.8   52.8  30.060  0.00  0.00   0.225   0.000   77.0    20   32.8   75.5     0    1      0.0   30 
12/03/22  6:00a   56.5   56.5   54.2    56   41.0   0.0   ---   0.00   0.0   ---   56.5   55.0   55.0  30.050  0.00  0.00   0.177   0.000   76.4    20   32.3   74.7     0    1      0.0   30 
12/03/22  6:30a   56.3   56.6   56.3    57   41.3   0.0   ---   0.00   0.0   ---   56.3   54.8   54.8  30.066  0.00  0.00   0.181   0.000   76.4    20   32.3   74.7     0    1      0.0   30 
12/03/22  7:00a   56.0   56.3   56.0    56   40.5   0.0   ---   0.00   0.0   ---   56.0   54.5   54.5  30.071  0.00  0.00   0.188   0.000   76.4    20   32.3   74.7     0    1      0.0   30 
12/03/22  7:30a   57.2   57.2   55.7    47   37.1   0.0   ---   0.00   0.0   ---   57.2   55.1   55.1  30.076  0.00  0.00   0.162   0.000   76.3    20   32.3   74.5   425    1     62.1   30 
12/03/22  8:00a   57.5   57.5   57.0    46   36.9   0.0   ---   0.00   0.0   ---   57.5   55.3   55.3  30.073  0.00  0.00   0.156   0.000   77.0    20   32.8   75.5   635    1     92.8   30 
12/03/22  8:30a   59.2   59.2   57.5    45   37.9   0.0   ---   0.00   0.0   ---   59.2   56.9   56.9  30.078  0.00  0.00   0.121   0.000   77.5    20   33.2   75.7   604    1     88.3   30 
12/03/22  9:00a   59.3   59.8   59.2    61   45.8   0.0   ---   0.00   0.0   ---   59.3   58.1   58.1  30.141  0.00  0.00   0.119   0.000   77.3    20   33.1   75.6   644    1     94.2   30 
12/03/22  9:30a   54.4   59.2   54.4    81   48.7   0.0   ---   0.00   0.0   ---   54.4   54.1   54.1  30.156  0.08  0.25   0.221   0.000   77.7    20   33.4   75.8   645    1     94.3   30 
12/03/22 10:00a   54.8   55.1   54.4    86   50.7   0.0   ---   0.00   0.0   ---   54.8   54.7   54.7  30.111  0.04  0.22   0.213   0.000   79.9    20   35.2   76.9   623    1     91.1   30 
12/03/22 10:30a   54.5   54.8   53.9    88   51.0   0.0   ---   0.00   0.0   ---   54.5   54.5   54.5  30.115  0.02  0.14   0.219   0.000   79.5    20   34.9   76.6   614    1     89.8   30 
12/03/22 11:00a   56.3   56.3   54.5    89   53.1   0.0   ---   0.00   0.0   ---   56.3   56.4   56.4  30.111  0.02  0.31   0.181   0.000   79.3    21   36.0   76.5   598    1     87.4   30 
12/03/22 11:30a   57.2   57.2   56.3    90   54.3   0.0   ---   0.00   0.0   ---   57.2   57.3   57.3  30.089  0.06  0.44   0.162   0.000   79.2    21   35.9   76.4   596    1     87.1   30 
12/03/22 12:00p   57.6   57.8   57.2    89   54.4   0.0   ---   0.00   0.0   ---   57.6   57.7   57.7  30.060  0.00  0.00   0.154   0.000   79.0    21   35.7   76.2   580    1     84.8   30 
12/03/22 12:30p   56.9   57.6   56.9    88   53.4   0.0   ---   0.00   0.0   ---   56.9   56.9   56.9  30.024  0.00  0.00   0.169   0.000   79.2    21   35.9   76.4   582    1     85.1   30 
12/03/22  1:00p   57.2   57.2   56.9    89   54.0   0.0   ---   0.00   0.0   ---   57.2   57.3   57.3  30.043  0.02  0.05   0.162   0.000   79.3    21   36.0   76.5   579    1     84.6   30 
12/03/22  1:30p   57.6   57.6   57.2    90   54.7   0.0   ---   0.00   0.0   ---   57.6   57.7   57.7  30.041  0.00  0.00   0.154   0.000   79.5    22   37.3   76.8   589    1     86.1   30 
12/03/22  2:00p   57.8   57.8   57.6    89   54.6   0.0   ---   0.00   0.0   ---   57.8   57.9   57.9  30.041  0.00  0.00   0.150   0.000   79.5    22   37.3   76.8   597    1     87.3   30 
12/03/22  2:30p   58.1   58.1   57.8    88   54.6   0.0   ---   0.00   0.0   ---   58.1   58.1   58.1  30.042  0.00  0.00   0.144   0.000   79.5    22   37.3   76.8   551    1     80.6   30 
12/03/22  3:00p   58.3   58.3   58.1    87   54.4   0.0   ---   0.00   0.0   ---   58.3   58.3   58.3  30.043  0.00  0.00   0.140   0.000   79.7    22   37.5   76.9   542    1     79.2   30 
12/03/22  3:30p   58.1   58.3   58.1    88   54.6   0.0   ---   0.00   0.0   ---   58.1   58.1   58.1  30.043  0.00  0.00   0.144   0.000   79.7    22   37.5   76.9   563    1     82.3   30 
12/03/22  4:00p   58.3   58.3   58.1    88   54.8   0.0   ---   0.00   0.0   ---   58.3   58.3   58.3  30.058  0.00  0.00   0.140   0.000   79.7    22   37.5   76.9   597    1     87.3   30 
12/03/22  4:30p   58.3   58.3   58.3    88   54.8   0.0   ---   0.00   0.0   ---   58.3   58.3   58.3  30.051  0.00  0.00   0.140   0.000   79.7    22   37.5   76.9   593    1     86.7   30 
12/03/22  5:00p   57.6   58.3   57.6    88   54.1   0.0   ---   0.00   0.0   ---   57.6   57.6   57.6  30.058  0.00  0.00   0.154   0.000   79.7    22   37.5   76.9   592    1     86.5   30 
12/03/22  5:30p   56.7   57.6   56.7    88   53.2   0.0   ---   0.00   0.0   ---   56.7   56.7   56.7  30.050  0.00  0.00   0.173   0.000   79.9    23   38.8   77.2   596    1     87.1   30 
12/03/22  6:00p   56.9   56.9   56.6    89   53.7   0.0   ---   0.00   0.0   ---   56.9   57.0   57.0  30.052  0.00  0.00   0.169   0.000   79.9    23   38.8   77.2   590    2     88.5   30 
12/03/22  6:30p   56.9   57.0   56.9    89   53.7   0.0   ---   0.00   0.0   ---   56.9   57.0   57.0  30.068  0.00  0.00   0.169   0.000   79.7    23   38.6   77.0   595    2     89.2   30 
12/03/22  7:00p   56.5   56.9   56.5    88   53.0   0.0   ---   0.00   0.0   ---   56.5   56.5   56.5  30.071  0.00  0.00   0.177   0.000   79.7    23   38.6   77.0   588    2     88.2   30 
12/03/22  7:30p   56.3   56.5   56.2    89   53.1   0.0   ---   0.00   0.0   ---   56.3   56.4   56.4  30.064  0.00  0.00   0.181   0.000   79.5    23   38.4   76.9   598    2     89.7   30 
12/03/22  8:00p   57.5   57.5   56.3    86   53.3   0.0   ---   0.00   0.0   ---   57.5   57.4   57.4  30.053  0.00  0.00   0.156   0.000   79.3    23   38.3   76.7   594    2     89.1   30 
12/03/22  8:30p   57.5   57.6   57.5    85   53.0   0.0   ---   0.00   0.0   ---   57.5   57.4   57.4  30.055  0.00  0.00   0.156   0.000   79.5    24   39.5   77.0   593    2     88.9   30 
12/03/22  9:00p   57.5   57.5   57.2    85   53.0   0.0   ---   0.00   0.0   ---   57.5   57.4   57.4  30.047  0.00  0.00   0.156   0.000   79.7    24   39.7   77.2   595    2     89.2   30 
12/03/22  9:30p   58.7   58.7   57.5    81   52.9   0.0   ---   0.00   0.0   ---   58.7   58.5   58.5  30.054  0.00  0.00   0.131   0.000   80.5    24   40.4   77.9   442    2     66.3   30 
12/03/22 10:00p   59.0   59.0   58.7    79   52.5   0.0   ---   0.00   0.0   ---   59.0   58.7   58.7  30.052  0.00  0.00   0.125   0.000   79.9    24   39.9   77.3     0    2      0.0   30 
12/03/22 10:30p   59.5   59.5   59.0    77   52.3   0.0   ---   0.00   0.0   ---   59.5   59.2   59.2  30.046  0.00  0.00   0.115   0.000   79.7    24   39.7   77.2     0    2      0.0   30 
12/03/22 11:00p   59.3   59.8   59.3    77   52.1   0.0   ---   0.00   0.0   ---   59.3   58.9   58.9  30.050  0.00  0.00   0.119   0.000   79.9    24   39.9   77.3     0    2      0.0   30 
12/03/22 11:30p   59.0   59.3   59.0    78   52.1   0.0   ---   0.00   0.0   ---   59.0   58.7   58.7  30.050  0.00  0.00   0.125   0.000   79.5    24   39.5   77.0     0    2      0.0   30 
12/04/22 12:00a   59.3   59.3   59.0    77   52.1   0.0   ---   0.00   0.0   ---   59.3   58.9   58.9  30.054  0.00  0.00   0.119   0.000   79.5    24   39.5   77.0     0    2      0.0   30 
12/04/22 12:30a   59.3   59.5   59.3    77   52.1   0.0   ---   0.00   0.0   ---   59.3   58.9   58.9  30.045  0.00  0.00   0.119   0.000   79.7    24   39.7   77.2     0    2      0.0   30 
12/04/22  1:00a   59.8   59.8   59.3    75   51.9   0.0   ---   0.00   0.0   ---   59.8   59.4   59.4  30.017  0.00  0.00   0.108   0.000   79.7    24   39.7   77.2     0    2      0.0   30 
12/04/22  1:30a   60.2   60.2   59.8    73   51.5   0.0   ---   0.00   0.0   ---   60.2   59.7   59.7  30.004  0.00  0.00   0.100   0.000   79.5    24   39.5   77.0     0    2      0.0   30 
12/04/22  2:00a   60.5   61.0   60.2    73   51.8   0.0   ---   0.00   0.0   ---   60.5   60.1   60.1  30.005  0.00  0.00   0.094   0.000   79.3    24   39.4   76.8     0    2      0.0   30 
12/04/22  2:30a   59.2   60.5   59.2    79   52.7   0.0   ---   0.00   0.0   ---   59.2   59.0   59.0  30.001  0.00  0.00   0.121   0.000   79.3    24   39.4   76.8     0    2      0.0   30 
12/04/22  3:00a   59.3   59.3   58.9    78   52.4   0.0   ---   0.00   0.0   ---   59.3   59.0   59.0  30.010  0.00  0.00   0.119   0.000   79.3    24   39.4   76.8     0    2      0.0   30 
12/04/22  3:30a   58.3   59.3   58.3    82   52.8   0.0   ---   0.00   0.0   ---   58.3   58.2   58.2  29.992  0.01  0.00   0.140   0.000   79.3    24   39.4   76.8     0    2      0.0   30 
12/04/22  4:00a   57.8   58.1   57.8    84   53.0   0.0   ---   0.00   0.0   ---   57.8   57.7   57.7  29.992  0.00  0.00   0.150   0.000   78.8    24   38.9   76.5     0    2      0.0   30 
12/04/22  4:30a   57.3   57.8   57.3    85   52.8   0.0   ---   0.00   0.0   ---   57.3   57.2   57.2  29.995  0.01  0.00   0.160   0.000   78.8    24   38.9   76.5     0    2      0.0   30 
12/04/22  5:00a   56.9   57.3   56.9    87   53.1   0.0   ---   0.00   0.0   ---   56.9   56.9   56.9  30.012  0.00  0.00   0.169   0.000   78.8    24   38.9   76.5     0    2      0.0   30 
12/04/22  5:30a   56.6   56.9   56.6    88   53.1   0.0   ---   0.00   0.0   ---   56.6   56.6   56.6  30.017  0.02  0.04   0.175   0.000   79.0    24   39.1   76.6     0    2      0.0   30 
12/04/22  6:00a   56.5   56.6   56.5    89   53.3   0.0   ---   0.00   0.0   ---   56.5   56.6   56.6  30.020  0.06  0.32   0.177   0.000   78.4    25   39.7   76.4     0    2      0.0   30 
12/04/22  6:30a   56.3   56.5   56.3    90   53.4   0.0   ---   0.00   0.0   ---   56.3   56.4   56.4  30.025  0.02  0.10   0.181   0.000   78.2    25   39.5   76.3     0    2      0.0   30 
12/04/22  7:00a   56.3   56.3   56.2    90   53.4   0.0   ---   0.00   0.0   ---   56.3   56.4   56.4  30.039  0.01  0.05   0.181   0.000   78.4    24   38.6   76.3     0    2      0.0   30 
12/04/22  7:30a   56.5   56.5   56.3    91   53.9   0.0   ---   0.00   0.0   ---   56.5   56.6   56.6  30.035  0.02  0.04   0.177   0.000   78.4    25   39.7   76.4     0    2      0.0   30 
12/04/22  8:00a   56.0   56.6   56.0    91   53.4   0.0   ---   0.00   0.0   ---   56.0   56.1   56.1  30.035  0.01  0.05   0.188   0.000   78.0    25   39.3   76.2     0    2      0.0   30 
12/04/22  8:30a   55.7   56.0   55.7    91   53.1   0.0   ---   0.00   0.0   ---   55.7   55.8   55.8  30.041  0.03  0.07   0.194   0.000   78.0    25   39.3   76.2   629    2     94.3   30 
12/04/22  9:00a   56.0   56.0   55.7    91   53.4   0.0   ---   0.00   0.0   ---   56.0   56.1   56.1  30.038  0.00  0.00   0.188   0.000   77.9    25   39.2   76.1   639    2     95.8   30 
12/04/22  9:30a   56.9   56.9   56.0    92   54.6   0.0   ---   0.00   0.0   ---   56.9   57.0   57.0  30.040  0.01  0.00   0.169   0.000   77.9    25   39.2   76.1   661    2     99.1   30 
12/04/22 10:00a   57.5   57.5   56.9    92   55.2   0.0   ---   0.00   0.0   ---   57.5   57.7   57.7  30.034  0.03  0.08   0.156   0.000   77.7    25   39.1   76.0   624    2     93.6   30 
12/04/22 10:30a   58.1   58.1   57.5    92   55.8   0.0   ---   0.00   0.0   ---   58.1   58.3   58.3  30.021  0.02  0.08   0.144   0.000   77.7    25   39.1   76.0   646    2     96.9   30 
12/04/22 11:00a   58.9   58.9   58.1    92   56.6   0.0   ---   0.00   0.0   ---   58.9   59.2   59.2  29.998  0.02  0.07   0.127   0.000   77.9    26   40.2   76.2   662    2     99.3   30 
12/04/22 11:30a   58.7   58.9   58.6    92   56.4   0.0   ---   0.00   0.0   ---   58.7   59.0   59.0  29.970  0.02  0.12   0.131   0.000   78.0    26   40.3   76.2   649    2     97.3   30 
12/04/22 12:00p   58.9   59.2   58.7    92   56.6   0.0   ---   0.00   0.0   ---   58.9   59.2   59.2  29.953  0.00  0.00   0.127   0.000   78.2    26   40.5   76.4   628    2     94.2   30 
12/04/22 12:30p   58.9   59.5   58.9    92   56.6   0.0   ---   0.00   0.0   ---   58.9   59.2   59.2  29.934  0.01  0.00   0.127   0.000   78.4    26   40.7   76.5   639    2     95.8   30 
12/04/22  1:00p   58.4   58.9   58.4    92   56.1   0.0   ---   0.00   0.0   ---   58.4   58.6   58.6  29.930  0.01  0.00   0.137   0.000   78.6    26   40.8   76.6   645    2     96.7   30 
12/04/22  1:30p   59.0   59.0   58.4    92   56.7   0.0   ---   0.00   0.0   ---   59.0   59.3   59.3  29.921  0.08  0.52   0.125   0.000   78.8    27   42.0   76.8   631    2     94.6   30 
12/04/22  2:00p   59.3   59.3   59.0    92   57.0   0.0   ---   0.00   0.0   ---   59.3   59.6   59.6  29.914  0.05  0.22   0.119   0.000   79.0    27   42.2   76.9   637    2     95.5   30 
12/04/22  2:30p   58.7   59.3   58.6    92   56.4   0.0   ---   0.00   0.0   ---   58.7   59.0   59.0  29.919  0.01  0.05   0.131   0.000   79.2    27   42.3   77.1   634    2     95.1   30 
12/04/22  3:00p   58.7   58.9   58.7    92   56.4   0.0   ---   0.00   0.0   ---   58.7   59.0   59.0  29.914  0.00  0.00   0.131   0.000   79.3    27   42.4   77.1   624    2     93.6   30 
12/04/22  3:30p   58.6   58.7   58.6    92   56.3   0.0   ---   0.00   0.0   ---   58.6   58.8   58.8  29.927  0.02  0.04   0.133   0.000   79.5    27   42.6   77.3   634    2     95.1   30 
12/04/22  4:00p   58.6   58.6   58.4    92   56.3   0.0   ---   0.00   0.0   ---   58.6   58.8   58.8  29.935  0.08  1.02   0.133   0.000   79.7    27   42.8   77.5   605    2     90.7   30 
12/04/22  4:30p   58.6   58.6   58.6    92   56.3   0.0   ---   0.00   0.0   ---   58.6   58.8   58.8  29.928  0.01  0.04   0.133   0.000   79.7    28   43.7   77.6   628    2     94.2   30 
12/04/22  5:00p   58.4   58.6   58.4    93   56.4   0.0   ---   0.00   0.0   ---   58.4   58.7   58.7  29.920  0.01  0.00   0.137   0.000   79.7    28   43.7   77.6   643    2     96.4   30 
12/04/22  5:30p   58.1   58.6   58.1    93   56.1   0.0   ---   0.00   0.0   ---   58.1   58.3   58.3  29.930  0.00  0.00   0.144   0.000   79.7    27   42.8   77.5   618    2     92.7   30 
12/04/22  6:00p   58.0   58.1   58.0    93   56.0   0.0   ---   0.00   0.0   ---   58.0   58.2   58.2  29.944  0.00  0.00   0.146   0.000   79.7    27   42.8   77.5   624    2     93.6   30 
12/04/22  6:30p   57.8   58.0   57.8    93   55.8   0.0   ---   0.00   0.0   ---   57.8   58.0   58.0  29.941  0.00  0.00   0.150   0.000   79.7    27   42.8   77.5   611    2     91.6   30 
12/04/22  7:00p   57.6   57.8   57.6    93   55.6   0.0   ---   0.00   0.0   ---   57.6   57.8   57.8  29.944  0.00  0.00   0.154   0.000   79.7    27   42.8   77.5   627    2     94.0   30 
12/04/22  7:30p   57.8   57.8   57.6    93   55.8   0.0   ---   0.00   0.0   ---   57.8   58.0   58.0  29.945  0.00  0.00   0.150   0.000   80.3    27   43.3   78.0   471    2     70.6   30 
12/04/22  8:00p   57.8   58.0   57.8    93   55.8   0.0   ---   0.00   0.0   ---   57.8   58.0   58.0  29.939  0.00  0.00   0.150   0.000   79.7    27   42.8   77.5     0    2      0.0   30 
12/04/22  8:30p   57.5   58.0   57.5    93   55.5   0.0   ---   0.00   0.0   ---   57.5   57.7   57.7  29.944  0.00  0.00   0.156   0.000   79.7    27   42.8   77.5     0    2      0.0   30 
12/04/22  9:00p   57.3   57.5   57.3    93   55.3   0.0   ---   0.00   0.0   ---   57.3   57.5   57.5  29.956  0.00  0.00   0.160   0.000   80.1    27   43.1   77.8     0    2      0.0   30 
12/04/22  9:30p   57.5   57.5   57.3    93   55.5   0.0   ---   0.00   0.0   ---   57.5   57.7   57.7  29.938  0.00  0.00   0.156   0.000   80.1    27   43.1   77.8     0    2      0.0   30 
12/04/22 10:00p   56.6   57.5   56.6    93   54.6   0.0   ---   0.00   0.0   ---   56.6   56.8   56.8  29.948  0.00  0.00   0.175   0.000   80.1    27   43.1   77.8     0    2      0.0   30 
12/04/22 10:30p   56.2   56.6   56.2    93   54.2   0.0   ---   0.00   0.0   ---   56.2   56.4   56.4  29.941  0.00  0.00   0.183   0.000   79.9    27   42.9   77.6     0    2      0.0   30 
12/04/22 11:00p   56.0   56.2   56.0    93   54.0   0.0   ---   0.00   0.0   ---   56.0   56.2   56.2  29.932  0.00  0.00   0.188   0.000   79.9    27   42.9   77.6     0    2      0.0   30 
12/04/22 11:30p   56.5   56.5   56.0    94   54.8   0.0   ---   0.00   0.0   ---   56.5   56.7   56.7  29.923  0.00  0.00   0.177   0.000   80.1    26   42.1   77.7     0    2      0.0   30 
12/05/22 12:00a   56.3   56.5   56.3    93   54.3   0.0   ---   0.00   0.0   ---   56.3   56.5   56.5  29.918  0.00  0.00   0.181   0.000   79.7    26   41.8   77.4     0    2      0.0   30 
12/05/22 12:30a   56.0   56.3   56.0    94   54.3   0.0   ---   0.00   0.0   ---   56.0   56.2   56.2  29.902  0.00  0.00   0.188   0.000   79.5    26   41.6   77.2     0    2      0.0   30 
12/05/22  1:00a   54.7   56.0   54.7    93   52.7   0.0   ---   0.00   0.0   ---   54.7   54.9   54.9  29.901  0.00  0.00   0.215   0.000   79.3    26   41.4   77.0     0    2      0.0   30 
12/05/22  1:30a   53.3   54.5   53.3    93   51.3   0.0   ---   0.00   0.0   ---   53.3   53.5   53.5  29.901  0.01  0.00   0.244   0.000   79.5    26   41.6   77.2     0    2      0.0   30 
12/05/22  2:00a   52.9   53.3   52.9    93   50.9   0.0   ---   0.00   0.0   ---   52.9   53.1   53.1  29.895  0.00  0.00   0.252   0.000   79.0    26   41.2   76.8     0    2      0.0   30 
12/05/22  2:30a   53.1   53.1   52.9    94   51.4   0.0   ---   0.00   0.0   ---   53.1   53.4   53.4  29.896  0.00  0.00   0.248   0.000   78.8    26   41.0   76.7     0    2      0.0   30 
12/05/22  3:00a   52.3   53.1   52.3    93   50.3   0.0   ---   0.00   0.0   ---   52.3   52.5   52.5  29.901  0.00  0.00   0.265   0.000   78.6    26   40.8   76.6     0    2      0.0   30 
12/05/22  3:30a   53.1   53.1   52.0    94   51.4   0.0   ---   0.00   0.0   ---   53.1   53.4   53.4  29.890  0.00  0.00   0.248   0.000   78.6    26   40.8   76.6     0    2      0.0   30 
12/05/22  4:00a   53.6   53.6   53.1    94   51.9   0.0   ---   0.00   0.0   ---   53.6   53.8   53.8  29.887  0.00  0.00   0.238   0.000   78.2    26   40.5   76.4     0    2      0.0   30 
12/05/22  4:30a   54.5   54.5   53.6    94   52.8   0.0   ---   0.00   0.0   ---   54.5   54.7   54.7  29.883  0.00  0.00   0.219   0.000   78.2    26   40.5   76.4     0    2      0.0   30 
12/05/22  5:00a   54.2   54.7   54.2    94   52.5   0.0   ---   0.00   0.0   ---   54.2   54.4   54.4  29.883  0.00  0.00   0.225   0.000   78.0    26   40.3   76.2     0    2      0.0   30 
12/05/22  5:30a   54.2   54.2   54.1    94   52.5   0.0   ---   0.00   0.0   ---   54.2   54.4   54.4  29.885  0.00  0.00   0.225   0.000   78.0    27   41.3   76.3     0    2      0.0   30 
12/05/22  6:00a   53.8   54.2   53.8    94   52.1   0.0   ---   0.00   0.0   ---   53.8   54.0   54.0  29.888  0.00  0.00   0.233   0.000   77.7    27   41.0   76.1     0    2      0.0   30 
12/05/22  6:30a   54.2   54.2   53.8    94   52.5   0.0   ---   0.00   0.0   ---   54.2   54.4   54.4  29.886  0.00  0.00   0.225   0.000   77.7    27   41.0   76.1     0    2      0.0   30 
12/05/22  7:00a   54.8   54.8   54.2    94   53.1   0.0   ---   0.00   0.0   ---   54.8   55.0   55.0  29.897  0.00  0.00   0.213   0.000   77.7    27   41.0   76.1     0    2      0.0   30 
12/05/22  7:30a   55.0   55.0   54.8    94   53.3   0.0   ---   0.00   0.0   ---   55.0   55.2   55.2  29.901  0.00  0.00   0.208   0.000   77.5    27   40.9   76.0   491    2     73.6   30 
12/05/22  8:00a   58.1   58.1   54.8    95   56.7   0.0   ---   0.00   0.0   ---   58.1   58.4   58.4  29.884  0.00  0.00   0.144   0.000   77.5    27   40.9   76.0   640    2     96.0   30 
12/05/22  8:30a   58.3   58.3   57.6    95   56.9   0.0   ---   0.00   0.0   ---   58.3   58.6   58.6  29.891  0.00  0.00   0.140   0.000   77.5    27   40.9   76.0   627    2     94.0   30 
12/05/22  9:00a   59.3   59.8   58.3    93   57.3   0.0   ---   0.00   0.0   ---   59.3   59.6   59.6  29.890  0.00  0.00   0.119   0.000   77.5    27   40.9   76.0   652    2     97.8   30 
12/05/22  9:30a   58.7   59.3   58.6    92   56.4   0.0   ---   0.00   0.0   ---   58.7   59.0   59.0  29.901  0.00  0.00   0.131   0.000   77.7    27   41.0   76.1   641    2     96.1   30 
12/05/22 10:00a   59.3   59.6   58.6    91   56.7   0.0   ---   0.00   0.0   ---   59.3   59.6   59.6  29.901  0.00  0.00   0.119   0.000   77.9    27   41.2   76.2   625    2     93.7   30 
12/05/22 10:30a   60.5   60.5   59.0    89   57.2   0.0   ---   0.00   0.0   ---   60.5   60.8   60.8  29.893  0.00  0.00   0.094   0.000   77.9    28   42.2   76.3   638    2     95.7   30 
12/05/22 11:00a   61.5   62.1   60.7    83   56.3   0.0   ---   0.00   0.0   ---   61.5   61.7   61.7  29.879  0.00  0.00   0.073   0.000   78.0    28   42.2   76.3   653    2     97.9   30 
12/05/22 11:30a   61.6   61.6   60.4    80   55.4   0.0   ---   0.00   0.0   ---   61.6   61.7   61.7  29.861  0.00  0.00   0.071   0.000   78.2    28   42.4   76.5   658    2     98.7   30 
12/05/22 12:00p   64.0   64.0   61.8    72   54.8   0.0   ---   0.00   0.0   ---   64.0   63.9   63.9  29.843  0.00  0.00   0.021   0.000   78.6    28   42.8   76.7   652    2     97.8   30 
12/05/22 12:30p   64.8   65.3   63.9    69   54.4   0.0   ---   0.00   0.0   ---   64.8   64.7   64.7  29.835  0.00  0.00   0.004   0.000   78.8    28   42.9   76.9   634    2     95.1   30 
12/05/22  1:00p   63.7   64.8   63.7    70   53.7   0.0   ---   0.00   0.0   ---   63.7   63.5   63.5  29.829  0.00  0.00   0.027   0.000   79.0    29   44.0   77.1   629    2     94.3   30 
12/05/22  1:30p   63.5   65.2   63.2    69   53.1   0.0   ---   0.00   0.0   ---   63.5   63.2   63.2  29.819  0.00  0.00   0.031   0.000   79.2    29   44.2   77.3   646    2     96.9   30 
12/05/22  2:00p   66.1   66.1   63.5    63   53.1   0.0   ---   0.00   0.0   ---   66.1   65.7   65.7  29.807  0.00  0.00   0.000   0.023   79.5    29   44.5   77.5   606    2     90.9   30 
12/05/22  2:30p   66.0   66.4   65.6    62   52.6   0.0   ---   0.00   0.0   ---   66.0   65.5   65.5  29.797  0.00  0.00   0.000   0.021   79.7    29   44.6   77.7   598    2     89.7   30 
12/05/22  3:00p   65.0   66.0   65.0    55   48.4   0.0   ---   0.00   0.0   ---   65.0   63.8   63.8  29.806  0.00  0.00   0.000   0.000   80.1    28   44.0   77.9   581    2     87.1   30 
12/05/22  3:30p   63.4   65.0   63.4    58   48.4   0.0   ---   0.00   0.0   ---   63.4   62.2   62.2  29.807  0.00  0.00   0.033   0.000   80.1    28   44.0   77.9   554    2     83.1   30 
12/05/22  4:00p   62.4   63.5   62.4    64   50.1   0.0   ---   0.00   0.0   ---   62.4   61.6   61.6  29.814  0.00  0.00   0.054   0.000   80.3    28   44.2   78.1   523    2     78.4   30 
12/05/22  4:30p   61.5   62.4   61.5    61   47.9   0.0   ---   0.00   0.0   ---   61.5   60.4   60.4  29.814  0.00  0.00   0.073   0.000   80.3    28   44.2   78.1   551    2     82.6   30 
12/05/22  5:00p   59.8   61.5   59.8    67   48.8   0.0   ---   0.00   0.0   ---   59.8   59.0   59.0  29.817  0.00  0.00   0.108   0.000   80.3    28   44.2   78.1   568    2     85.2   30 
12/05/22  5:30p   57.6   59.8   57.6    72   48.6   0.0   ---   0.00   0.0   ---   57.6   56.9   56.9  29.828  0.00  0.00   0.154   0.000   80.3    28   44.2   78.1   618    2     92.7   30 
12/05/22  6:00p   56.3   57.6   56.3    74   48.1   0.0   ---   0.00   0.0   ---   56.3   55.7   55.7  29.843  0.00  0.00   0.181   0.000   80.3    28   44.2   78.1   630    2     94.5   30 
12/05/22  6:30p   54.4   56.3   54.4    77   47.3   0.0   ---   0.00   0.0   ---   54.4   54.0   54.0  29.848  0.00  0.00   0.221   0.000   80.1    28   44.0   77.9   625    2     93.7   30 
12/05/22  7:00p   53.1   54.4   53.1    79   46.8   0.0   ---   0.00   0.0   ---   53.1   52.8   52.8  29.856  0.00  0.00   0.248   0.000   80.1    28   44.0   77.9   644    2     96.6   30 
12/05/22  7:30p   52.2   53.1   52.2    81   46.5   0.0   ---   0.00   0.0   ---   52.2   52.0   52.0  29.855  0.00  0.00   0.267   0.000   79.9    28   43.9   77.7   629    2     94.3   30 
12/05/22  8:00p   51.9   52.2   51.9    81   46.3   0.0   ---   0.00   0.0   ---   51.9   51.7   51.7  29.860  0.00  0.00   0.273   0.000   79.9    28   43.9   77.7   597    2     89.5   30 
12/05/22  8:30p   50.8   51.9   50.8    83   45.8   0.0   ---   0.00   0.0   ---   50.8   50.8   50.8  29.860  0.00  0.00   0.296   0.000   79.7    28   43.7   77.6   620    2     93.0   30 
12/05/22  9:00p   50.4   50.8   50.4    85   46.1   0.0   ---   0.00   0.0   ---   50.4   50.5   50.5  29.869  0.00  0.00   0.304   0.000   79.5    28   43.5   77.4   634    2     95.1   30 
12/05/22  9:30p   49.8   50.4   49.8    86   45.8   0.0   ---   0.00   0.0   ---   49.8   49.9   49.9  29.872  0.00  0.00   0.317   0.000   79.2    28   43.3   77.2   622    2     93.3   30 
12/05/22 10:00p   48.9   49.8   48.9    86   44.9   0.0   ---   0.00   0.0   ---   48.9   49.0   49.0  29.871  0.00  0.00   0.335   0.000   79.0    28   43.1   77.0   635    2     95.2   30 
12/05/22 10:30p   48.2   48.9   48.2    87   44.5   0.0   ---   0.00   0.0   ---   48.2   48.3   48.3  29.863  0.00  0.00   0.350   0.000   78.8    28   42.9   76.9   620    2     93.0   30 
12/05/22 11:00p   47.9   48.2   47.7    88   44.5   0.0   ---   0.00   0.0   ---   47.9   48.0   48.0  29.864  0.01  0.00   0.356   0.000   78.4    27   41.6   76.5   597    2     89.5   30 
12/05/22 11:30p   48.3   48.5   47.9    87   44.6   0.0   ---   0.00   0.0   ---   48.3   48.4   48.4  29.857  0.00  0.00   0.348   0.000   78.2    27   41.5   76.4   587    2     88.0   30 
12/06/22 12:00a   47.3   48.3   47.3    88   43.9   0.0   ---   0.00   0.0   ---   47.3   47.4   47.4  29.866  0.00  0.00   0.369   0.000   78.0    27   41.3   76.3   584    2     87.6   30 
12/06/22 12:30a   47.0   47.3   47.0    89   43.9   0.0   ---   0.00   0.0   ---   47.0   47.2   47.2  29.859  0.00  0.00   0.375   0.000   78.2    27   41.5   76.4   166    2     24.9   30 
12/06/22  1:00a   46.7   47.0   46.7    89   43.6   0.0   ---   0.00   0.0   ---   46.7   46.8   46.8  29.853  0.00  0.00   0.381   0.000   77.9    27   41.2   76.2     0    2      0.0   30 
12/06/22  1:30a   46.4   46.7   46.2    90   43.6   0.0   ---   0.00   0.0   ---   46.4   46.5   46.5  29.842  0.00  0.00   0.387   0.000   77.5    27   40.9   76.0     0    2      0.0   30 
12/06/22  2:00a   46.2   46.5   46.2    90   43.4   0.0   ---   0.00   0.0   ---   46.2   46.3   46.3  29.841  0.00  0.00   0.392   0.000   77.2    27   40.6   75.8     0    2      0.0   30 
12/06/22  2:30a   46.1   46.2   46.0    90   43.3   0.0   ---   0.00   0.0   ---   46.1   46.2   46.2  29.851  0.00  0.00   0.394   0.000   76.8    27   40.3   75.5     0    2      0.0   30 
12/06/22  3:00a   46.0   46.4   46.0    90   43.2   0.0   ---   0.00   0.0   ---   46.0   46.1   46.1  29.851  0.00  0.00   0.396   0.000   76.8    27   40.3   75.5     0    2      0.0   30 
12/06/22  3:30a   45.2   46.0   45.2    90   42.4   0.0   ---   0.00   0.0   ---   45.2   45.3   45.3  29.864  0.00  0.00   0.412   0.000   76.6    27   40.1   75.2     0    2      0.0   30 
12/06/22  4:00a   45.7   45.7   45.2    91   43.2   0.0   ---   0.00   0.0   ---   45.7   45.8   45.8  29.846  0.00  0.00   0.402   0.000   76.4    27   39.9   74.9     0    2      0.0   30 
12/06/22  4:30a   45.5   45.7   45.4    91   43.0   0.0   ---   0.00   0.0   ---   45.5   45.6   45.6  29.861  0.00  0.00   0.406   0.000   75.9    27   39.5   74.2     0    2      0.0   30 
12/06/22  5:00a   45.2   45.7   45.2    90   42.4   0.0   ---   0.00   0.0   ---   45.2   45.3   45.3  29.858  0.00  0.00   0.412   0.000   75.7    27   39.3   74.0     0    2      0.0   30 
12/06/22  5:30a   45.1   45.2   45.1    90   42.3   0.0   ---   0.00   0.0   ---   45.1   45.2   45.2  29.875  0.00  0.00   0.415   0.000   75.6    27   39.2   73.9     0    2      0.0   30 
12/06/22  6:00a   45.1   45.1   44.8    91   42.6   0.0   ---   0.00   0.0   ---   45.1   45.2   45.2  29.890  0.00  0.00   0.415   0.000   75.6    27   39.2   73.9     0    2      0.0   30 
12/06/22  6:30a   46.2   46.2   45.1    91   43.7   0.0   ---   0.00   0.0   ---   46.2   46.4   46.4  29.906  0.00  0.00   0.392   0.000   75.0    27   38.7   73.1     0    2      0.0   30 
12/06/22  7:00a   46.1   46.4   46.1    90   43.3   0.0   ---   0.00   0.0   ---   46.1   46.2   46.2  29.913  0.00  0.00   0.394   0.000   74.9    27   38.7   72.9     0    2      0.0   30 
12/06/22  7:30a   48.2   48.2   46.1    90   45.4   0.0   ---   0.00   0.0   ---   48.2   48.4   48.4  29.912  0.00  0.00   0.350   0.000   74.7    27   38.5   72.7   525    2     78.7   30 
12/06/22  8:00a   53.9   53.9   48.2    81   48.2   0.0   ---   0.00   0.0   ---   53.9   53.6   53.6  29.894  0.00  0.00   0.231   0.000   74.7    27   38.5   72.7   644    2     96.6   30 
12/06/22  8:30a   58.3   58.3   53.9    67   47.4   0.0   ---   0.00   0.0   ---   58.3   57.4   57.4  29.892  0.00  0.00   0.140   0.000   74.9    27   38.7   72.9   632    2     94.8   30 
12/06/22  9:00a   60.5   60.5   58.3    59   46.1   0.0   ---   0.00   0.0   ---   60.5   59.2   59.2  29.898  0.00  0.00   0.094   0.000   76.6    27   40.1   75.2   653    2     97.9   30 
12/06/22  9:30a   62.4   62.4   60.5    53   45.0   0.0   ---   0.00   0.0   ---   62.4   60.8   60.8  29.901  0.00  0.00   0.054   0.000   76.8    26   39.3   75.4   659    2     98.8   30 
12/06/22 10:00a   64.0   64.0   62.4    51   45.5   0.0   ---   0.00   0.0   ---   64.0   62.3   62.3  29.904  0.00  0.00   0.021   0.000   76.8    26   39.3   75.4   661    2     99.1   30 
12/06/22 10:30a   64.5   64.7   64.0    50   45.4   0.0   ---   0.00   0.0   ---   64.5   62.8   62.8  29.899  0.00  0.00   0.010   0.000   77.2    26   39.6   75.8   644    2     96.6   30 
12/06/22 11:00a   65.5   65.5   64.3    47   44.7   0.0   ---   0.00   0.0   ---   65.5   63.5   63.5  29.883  0.00  0.00   0.000   0.010   77.3    27   40.7   75.9   644    2     96.6   30 
12/06/22 11:30a   65.3   65.6   65.0    46   44.0   0.0   ---   0.00   0.0   ---   65.3   63.2   63.2  29.878  0.00  0.00   0.000   0.006   77.5    27   40.9   76.0   647    2     97.0   30 
12/06/22 12:00p   65.3   66.1   65.3    42   41.6   0.0   ---   0.00   0.0   ---   65.3   62.9   62.9  29.862  0.00  0.00   0.000   0.006   77.7    27   41.0   76.1   653    2     97.9   30 
12/06/22 12:30p   66.4   66.4   65.3    41   42.0   0.0   ---   0.00   0.0   ---   66.4   63.9   63.9  29.857  0.00  0.00   0.000   0.029   78.0    27   41.3   76.3   658    2     98.7   30 
12/06/22  1:00p   66.4   66.4   65.8    35   37.9   0.0   ---   0.00   0.0   ---   66.4   63.3   63.3  29.844  0.00  0.00   0.000   0.029   78.4    27   41.6   76.5   643    2     96.4   30 
12/06/22  1:30p   66.3   66.4   66.0    36   38.5   0.0   ---   0.00   0.0   ---   66.3   63.3   63.3  29.840  0.00  0.00   0.000   0.027   78.6    27   41.8   76.7   644    2     96.6   30 
12/06/22  2:00p   66.4   66.9   66.3    34   37.2   0.0   ---   0.00   0.0   ---   66.4   63.2   63.2  29.841  0.00  0.00   0.000   0.029   79.0    27   42.2   76.9   634    2     95.1   30 
12/06/22  2:30p   66.6   66.6   66.1    35   38.1   0.0   ---   0.00   0.0   ---   66.6   63.5   63.5  29.843  0.00  0.00   0.000   0.033   79.2    27   42.3   77.1   626    2     93.9   30 
12/06/22  3:00p   65.6   66.9   65.6    35   37.2   0.0   ---   0.00   0.0   ---   65.6   62.5   62.5  29.840  0.00  0.00   0.000   0.012   79.5    27   42.6   77.3   617    2     92.5   30 
12/06/22  3:30p   64.8   65.6   64.8    36   37.2   0.0   ---   0.00   0.0   ---   64.8   61.7   61.7  29.851  0.00  0.00   0.004   0.000   79.9    27   42.9   77.6   596    2     89.4   30 
12/06/22  4:00p   64.0   64.8   64.0    38   37.9   0.0   ---   0.00   0.0   ---   64.0   61.1   61.1  29.851  0.00  0.00   0.021   0.000   79.9    27   42.9   77.6   619    2     92.8   30 
12/06/22  4:30p   62.4   64.0   62.4    39   37.1   0.0   ---   0.00   0.0   ---   62.4   59.6   59.6  29.862  0.00  0.00   0.054   0.000   80.1    27   43.1   77.8   640    2     96.0   30 
12/06/22  5:00p   60.4   62.4   60.4    44   38.4   0.0   ---   0.00   0.0   ---   60.4   58.0   58.0  29.889  0.00  0.00   0.096   0.000   79.9    27   42.9   77.6   638    2     95.7   30 
12/06/22  5:30p   58.0   60.4   58.0    48   38.4   0.0   ---   0.00   0.0   ---   58.0   55.9   55.9  29.900  0.00  0.00   0.146   0.000   79.7    26   41.8   77.4   638    2     95.7   30 
12/06/22  6:00p   55.6   58.0   55.6    53   38.7   0.0   ---   0.00   0.0   ---   55.6   53.9   53.9  29.922  0.00  0.00   0.196   0.000   79.7    26   41.8   77.4   648    2     97.2   30 
12/06/22  6:30p   53.6   55.4   53.6    55   37.8   0.0   ---   0.00   0.0   ---   53.6   52.2   52.2  29.924  0.00  0.00   0.238   0.000   79.5    26   41.6   77.2   652    2     97.8   30 
12/06/22  7:00p   52.0   53.6   52.0    62   39.4   0.0   ---   0.00   0.0   ---   52.0   51.1   51.1  29.940  0.00  0.00   0.271   0.000   79.2    26   41.3   77.0   650    2     97.5   30 
12/06/22  7:30p   50.1   52.0   50.1    68   39.9   0.0   ---   0.00   0.0   ---   50.1   49.6   49.6  29.925  0.00  0.00   0.310   0.000   79.0    26   41.2   76.8   656    2     98.4   30 
12/06/22  8:00p   49.2   50.1   49.2    70   39.8   0.0   ---   0.00   0.0   ---   49.2   48.8   48.8  29.943  0.00  0.00   0.329   0.000   78.8    26   41.0   76.7   634    2     95.1   30 
12/06/22  8:30p   47.4   49.2   47.4    74   39.5   0.0   ---   0.00   0.0   ---   47.4   47.1   47.1  29.929  0.00  0.00   0.367   0.000   78.6    26   40.8   76.6   644    2     96.6   30 
12/06/22  9:00p   46.5   47.4   46.5    77   39.7   0.0   ---   0.00   0.0   ---   46.5   46.2   46.2  29.938  0.00  0.00   0.385   0.000   78.4    26   40.7   76.5   657    2     98.5   30 
12/06/22  9:30p   46.4   46.5   46.2    79   40.2   0.0   ---   0.00   0.0   ---   46.4   46.2   46.2  29.937  0.00  0.00   0.387   0.000   78.2    26   40.5   76.4   659    2     98.8   30 
12/06/22 10:00p   48.0   48.0   46.4    77   41.1   0.0   ---   0.00   0.0   ---   48.0   47.8   47.8  29.932  0.00  0.00   0.354   0.000   78.0    26   40.3   76.2   651    2     97.6   30 
12/06/22 10:30p   47.9   48.3   47.9    75   40.4   0.0   ---   0.00   0.0   ---   47.9   47.6   47.6  29.928  0.00  0.00   0.356   0.000   77.7    26   40.1   76.1   655    2     98.2   30 
12/06/22 11:00p   46.1   47.9   46.1    77   39.3   0.0   ---   0.00   0.0   ---   46.1   45.8   45.8  29.939  0.00  0.00   0.394   0.000   77.5    26   39.9   76.0   643    2     96.4   30 
12/06/22 11:30p   44.2   46.0   44.2    82   39.1   0.0   ---   0.00   0.0   ---   44.2   44.0   44.0  29.956  0.00  0.00   0.433   0.000   77.3    26   39.7   75.9   665    2     99.7   30 
12/07/22 12:00a   44.1   44.2   44.1    82   39.0   0.0   ---   0.00   0.0   ---   44.1   43.9   43.9  29.956  0.00  0.00   0.435   0.000   77.2    26   39.6   75.8   680    2    100.0   30 
12/07/22 12:30a   43.8   44.1   43.8    83   39.0   0.0   ---   0.00   0.0   ---   43.8   43.7   43.7  29.943  0.00  0.00   0.442   0.000   77.0    26   39.5   75.7   629    2     94.3   30 
12/07/22  1:00a   43.5   43.8   43.3    84   39.0   0.0   ---   0.00   0.0   ---   43.5   43.4   43.4  29.947  0.00  0.00   0.448   0.000   76.6    26   39.1   75.2   677    2    100.0   30 
12/07/22  1:30a   42.3   43.5   42.3    84   37.8   0.0   ---   0.00   0.0   ---   42.3   42.1   42.1  29.946  0.00  0.00   0.473   0.000   76.3    26   38.9   74.8   661    2     99.1   30 
12/07/22  2:00a   42.6   42.6   42.2    86   38.7   0.0   ---   0.00   0.0   ---   42.6   42.5   42.5  29.944  0.00  0.00   0.467   0.000   75.9    26   38.5   74.2   664    2     99.6   30 
12/07/22  2:30a   44.2   44.2   42.6    85   40.0   0.0   ---   0.00   0.0   ---   44.2   44.1   44.1  29.933  0.00  0.00   0.433   0.000   75.9    26   38.5   74.2   283    2     42.4   30 
12/07/22  3:00a   45.8   45.8   44.2    78   39.3   0.0   ---   0.00   0.0   ---   45.8   45.5   45.5  29.919  0.00  0.00   0.400   0.000   75.4    26   38.1   73.5     0    2      0.0   30 
12/07/22  3:30a   46.8   46.8   45.8    73   38.6   0.0   ---   0.00   0.0   ---   46.8   46.4   46.4  29.923  0.00  0.00   0.379   0.000   75.0    26   37.8   73.0     0    2      0.0   30 
12/07/22  4:00a   46.8   47.3   46.8    72   38.2   0.0   ---   0.00   0.0   ---   46.8   46.4   46.4  29.928  0.00  0.00   0.379   0.000   75.0    26   37.8   73.0     0    2      0.0   30 
12/07/22  4:30a   45.1   46.7   45.1    76   38.0   0.0   ---   0.00   0.0   ---   45.1   44.7   44.7  29.960  0.00  0.00   0.415   0.000   74.9    26   37.7   72.9     0    2      0.0   30 
12/07/22  5:00a   44.2   45.1   44.2    81   38.7   0.0   ---   0.00   0.0   ---   44.2   44.0   44.0  29.964  0.00  0.00   0.433   0.000   74.9    26   37.7   72.9     0    2      0.0   30 
12/07/22  5:30a   45.2   45.2   44.2    82   40.0   0.0   ---   0.00   0.0   ---   45.2   45.0   45.0  29.992  0.00  0.00   0.412   0.000   74.9    26   37.7   72.9     0    2      0.0   30 
12/07/22  6:00a   46.1   46.1   45.2    80   40.3   0.0   ---   0.00   0.0   ---   46.1   45.9   45.9  29.985  0.00  0.00   0.394   0.000   74.5    26   37.3   72.4     0    2      0.0   30 
12/07/22  6:30a   45.7   46.1   45.7    80   39.9   0.0   ---   0.00   0.0   ---   45.7   45.5   45.5  30.002  0.00  0.00   0.402   0.000   74.3    26   37.2   72.2     0    2      0.0   30 
12/07/22  7:00a   48.2   48.2   45.7    72   39.6   0.0   ---   0.00   0.0   ---   48.2   47.8   47.8  29.993  0.00  0.00   0.350   0.000   74.5    26   37.3   72.4     0    2      0.0   30 
12/07/22  7:30a   51.4   51.4   48.2    65   40.0   0.0   ---   0.00   0.0   ---   51.4   50.7   50.7  30.007  0.00  0.00   0.283   0.000   74.3    26   37.2   72.2   409    2     61.3   30 
12/07/22  8:00a   53.1   53.1   51.4    61   40.0   0.0   ---   0.00   0.0   ---   53.1   52.0   52.0  30.004  0.00  0.00   0.248   0.000   74.3    26   37.2   72.2   665    2     99.7   30 
12/07/22  8:30a   56.9   56.9   53.1    55   40.9   0.0   ---   0.00   0.0   ---   56.9   55.3   55.3  30.008  0.00  0.00   0.169   0.000   74.3    26   37.2   72.2   648    2     97.2   30 
12/07/22  9:00a   58.7   58.7   56.9    53   41.6   0.0   ---   0.00   0.0   ---   58.7   56.9   56.9  30.015  0.00  0.00   0.131   0.000   74.5    26   37.3   72.4   640    2     96.0   30 
12/07/22  9:30a   55.4   58.7   55.4    61   42.2   0.0   ---   0.00   0.0   ---   55.4   54.2   54.2  30.038  0.00  0.00   0.200   0.000   74.7    26   37.5   72.6   643    2     96.4   30 
12/07/22 10:00a   55.3   55.4   54.7    60   41.6   0.0   ---   0.00   0.0   ---   55.3   54.0   54.0  30.051  0.00  0.00   0.202   0.000   74.9    26   37.7   72.9   677    2    100.0   30 
12/07/22 10:30a   58.6   58.6   55.3    52   41.0   0.0   ---   0.00   0.0   ---   58.6   56.8   56.8  30.037  0.00  0.00   0.133   0.000   75.2    26   37.9   73.3   679    2    100.0   30 
12/07/22 11:00a   60.1   60.1   58.6    51   41.9   0.0   ---   0.00   0.0   ---   60.1   58.2   58.2  30.021  0.00  0.00   0.102   0.000   75.6    26   38.3   73.8   681    2    100.0   30 
12/07/22 11:30a   61.6   61.6   60.1    49   42.2   0.0   ---   0.00   0.0   ---   61.6   59.6   59.6  30.016  0.00  0.00   0.071   0.000   75.7    26   38.4   73.9   669    2    100.0   30 
12/07/22 12:00p   60.5   61.6   60.5    52   42.8   0.0   ---   0.00   0.0   ---   60.5   58.7   58.7  30.011  0.00  0.00   0.094   0.000   75.9    27   39.5   74.2   666    2     99.9   30 
12/07/22 12:30p   58.7   60.5   58.7    54   42.1   0.0   ---   0.00   0.0   ---   58.7   57.0   57.0  30.024  0.00  0.00   0.131   0.000   76.3    27   39.8   74.8   673    2    100.0   30 
12/07/22  1:00p   59.2   59.2   58.3    53   42.1   0.0   ---   0.00   0.0   ---   59.2   57.4   57.4  30.023  0.00  0.00   0.121   0.000   76.3    27   39.8   74.8   684    2    100.0   30 
12/07/22  1:30p   61.0   61.0   59.2    49   41.7   0.0   ---   0.00   0.0   ---   61.0   58.9   58.9  30.007  0.00  0.00   0.083   0.000   76.4    27   39.9   74.9   683    2    100.0   30 
12/07/22  2:00p   60.1   61.0   60.1    50   41.4   0.0   ---   0.00   0.0   ---   60.1   58.1   58.1  30.016  0.00  0.00   0.102   0.000   76.6    26   39.1   75.2   676    2    100.0   30 
12/07/22  2:30p   62.7   62.7   59.9    44   40.5   0.0   ---   0.00   0.0   ---   62.7   60.3   60.3  29.985  0.00  0.00   0.048   0.000   76.8    26   39.3   75.4   668    2    100.0   30 
12/07/22  3:00p   63.7   63.9   62.7    34   34.8   0.0   ---   0.00   0.0   ---   63.7   60.4   60.4  29.986  0.00  0.00   0.027   0.000   77.0    26   39.5   75.7   675    2    100.0   30 
12/07/22  3:30p   62.7   63.7   62.7    34   33.9   0.0   ---   0.00   0.0   ---   62.7   59.4   59.4  29.995  0.00  0.00   0.048   0.000   77.2    26   39.6   75.8   668    2    100.0   30 
12/07/22  4:00p   60.9   62.7   60.9    33   31.6   0.0   ---   0.00   0.0   ---   60.9   57.5   57.5  30.021  0.00  0.00   0.085   0.000   77.3    26   39.7   75.9   656    2     98.4   30 
12/07/22  4:30p   59.5   60.9   59.5    39   34.5   0.0   ---   0.00   0.0   ---   59.5   56.7   56.7  30.050  0.00  0.00   0.115   0.000   77.3    26   39.7   75.9   668    2    100.0   30 
12/07/22  5:00p   57.5   59.3   57.5    49   38.5   0.0   ---   0.00   0.0   ---   57.5   55.5   55.5  30.072  0.00  0.00   0.156   0.000   77.3    26   39.7   75.9   665    2     99.7   30 
12/07/22  5:30p   55.7   57.5   55.7    54   39.3   0.0   ---   0.00   0.0   ---   55.7   54.1   54.1  30.089  0.00  0.00   0.194   0.000   77.3    26   39.7   75.9   643    2     96.4   30 
12/07/22  6:00p   53.6   55.7   53.6    60   40.0   0.0   ---   0.00   0.0   ---   53.6   52.4   52.4  30.097  0.00  0.00   0.238   0.000   77.2    26   39.6   75.8   663    2     99.4   30 
12/07/22  6:30p   51.7   53.6   51.7    65   40.3   0.0   ---   0.00   0.0   ---   51.7   50.9   50.9  30.112  0.00  0.00   0.277   0.000   77.7    26   40.1   76.1   672    2    100.0   30 
12/07/22  7:00p   49.8   51.7   49.8    70   40.4   0.0   ---   0.00   0.0   ---   49.8   49.4   49.4  30.123  0.00  0.00   0.317   0.000   77.7    26   40.1   76.1   676    2    100.0   30 
12/07/22  7:30p   47.6   49.8   47.6    73   39.4   0.0   ---   0.00   0.0   ---   47.6   47.2   47.2  30.122  0.00  0.00   0.363   0.000   77.9    26   40.2   76.2   678    2    100.0   30 
12/07/22  8:00p   46.1   47.6   46.1    76   39.0   0.0   ---   0.00   0.0   ---   46.1   45.7   45.7  30.140  0.00  0.00   0.394   0.000   78.8    26   41.0   76.7   676    2    100.0   30 
12/07/22  8:30p   46.5   46.5   45.7    77   39.7   0.0   ---   0.00   0.0   ---   46.5   46.2   46.2  30.124  0.00  0.00   0.385   0.000   78.6    26   40.8   76.6   662    2     99.3   30 
12/07/22  9:00p   46.5   47.0   46.5    75   39.0   0.0   ---   0.00   0.0   ---   46.5   46.2   46.2  30.123  0.00  0.00   0.385   0.000   78.0    26   40.3   76.2   671    2    100.0   30 
12/07/22  9:30p   46.0   46.5   46.0    75   38.5   0.0   ---   0.00   0.0   ---   46.0   45.6   45.6  30.150  0.00  0.00   0.396   0.000   77.5    26   39.9   76.0   677    2    100.0   30 
12/07/22 10:00p   44.6   46.0   44.6    76   37.5   0.0   ---   0.00   0.0   ---   44.6   44.2   44.2  30.150  0.00  0.00   0.425   0.000   77.2    26   39.6   75.8   680    2    100.0   30 
12/07/22 10:30p   43.2   44.6   43.2    79   37.1   0.0   ---   0.00   0.0   ---   43.2   42.9   42.9  30.143  0.00  0.00   0.454   0.000   76.8    26   39.3   75.4   680    2    100.0   30 
12/07/22 11:00p   42.6   43.2   42.6    79   36.5   0.0   ---   0.00   0.0   ---   42.6   42.3   42.3  30.141  0.00  0.00   0.467   0.000   76.6    26   39.1   75.2   662    2     99.3   30 
12/07/22 11:30p   41.9   42.6   41.9    79   35.9   0.0   ---   0.00   0.0   ---   41.9   41.6   41.6  30.141  0.00  0.00   0.481   0.000   76.4    26   39.0   74.9   657    2     98.5   30 
12/08/22 12:00a   41.3   41.9   41.3    81   35.9   0.0   ---   0.00   0.0   ---   41.3   41.0   41.0  30.129  0.00  0.00   0.494   0.000   76.4    26   39.0   74.9   666    2     99.9   30 
12/08/22 12:30a   40.6   41.3   40.6    81   35.2   0.0   ---   0.00   0.0   ---   40.6   40.3   40.3  30.146  0.00  0.00   0.508   0.000   75.9    26   38.5   74.2   669    2    100.0   30 
12/08/22  1:00a   40.1   40.6   40.1    82   35.0   0.0   ---   0.00   0.0   ---   40.1   39.8   39.8  30.147  0.00  0.00   0.519   0.000   75.6    26   38.3   73.8   672    2    100.0   30 
12/08/22  1:30a   39.3   40.1   39.3    83   34.6   0.0   ---   0.00   0.0   ---   39.3   39.1   39.1  30.143  0.00  0.00   0.535   0.000   75.2    26   37.9   73.3   661    2     99.1   30 
12/08/22  2:00a   39.2   39.3   39.1    84   34.8   0.0   ---   0.00   0.0   ---   39.2   39.0   39.0  30.141  0.00  0.00   0.537   0.000   74.9    26   37.7   72.9   639    2     95.8   30 
12/08/22  2:30a   38.8   39.2   38.8    85   34.7   0.0   ---   0.00   0.0   ---   38.8   38.6   38.6  30.127  0.00  0.00   0.546   0.000   74.5    26   37.3   72.4   653    2     97.9   30 
12/08/22  3:00a   39.5   39.5   38.8    84   35.1   0.0   ---   0.00   0.0   ---   39.5   39.3   39.3  30.119  0.00  0.00   0.531   0.000   74.9    26   37.7   72.9   501    2     75.1   30 
12/08/22  3:30a   38.8   39.5   38.8    84   34.4   0.0   ---   0.00   0.0   ---   38.8   38.6   38.6  30.120  0.00  0.00   0.546   0.000   74.0    26   36.9   71.8     0    2      0.0   30 
12/08/22  4:00a   38.6   38.8   38.5    84   34.2   0.0   ---   0.00   0.0   ---   38.6   38.4   38.4  30.112  0.00  0.00   0.550   0.000   73.8    26   36.8   71.5     0    2      0.0   30 
12/08/22  4:30a   38.0   38.6   38.0    84   33.6   0.0   ---   0.00   0.0   ---   38.0   37.8   37.8  30.121  0.00  0.00   0.563   0.000   73.6    26   36.6   71.2     0    2      0.0   30 
12/08/22  5:00a   37.8   38.0   37.6    86   34.0   0.0   ---   0.00   0.0   ---   37.8   37.6   37.6  30.121  0.00  0.00   0.567   0.000   73.3    26   36.3   70.8     0    2      0.0   30 
12/08/22  5:30a   39.1   39.1   37.8    84   34.7   0.0   ---   0.00   0.0   ---   39.1   38.9   38.9  30.146  0.00  0.00   0.540   0.000   73.1    26   36.2   70.5     0    2      0.0   30 
12/08/22  6:00a   39.1   39.3   39.1    83   34.4   0.0   ---   0.00   0.0   ---   39.1   38.9   38.9  30.147  0.00  0.00   0.540   0.000   73.0    25   35.1   70.2     0    2      0.0   30 
12/08/22  6:30a   38.8   39.1   38.8    83   34.1   0.0   ---   0.00   0.0   ---   38.8   38.6   38.6  30.178  0.00  0.00   0.546   0.000   73.0    25   35.1   70.2     0    2      0.0   30 
12/08/22  7:00a   37.6   38.8   37.6    85   33.5   0.0   ---   0.00   0.0   ---   37.6   37.4   37.4  30.179  0.00  0.00   0.571   0.000   72.8    25   34.9   69.9     5    2      0.7   30 
12/08/22  7:30a   40.6   40.6   37.6    83   35.8   0.0   ---   0.00   0.0   ---   40.6   40.4   40.4  30.194  0.00  0.00   0.508   0.000   73.3    26   36.3   70.8   663    2     99.4   30 
12/08/22  8:00a   47.3   47.3   40.6    70   38.0   0.0   ---   0.00   0.0   ---   47.3   46.8   46.8  30.165  0.00  0.00   0.369   0.000   73.8    25   35.8   71.4   653    2     97.9   30 
12/08/22  8:30a   51.3   51.3   47.4    61   38.3   0.0   ---   0.00   0.0   ---   51.3   50.4   50.4  30.147  0.00  0.00   0.285   0.000   73.6    25   35.6   71.1   668    2    100.0   30 
12/08/22  9:00a   54.4   54.4   51.4    56   39.0   0.0   ---   0.00   0.0   ---   54.4   53.0   53.0  30.145  0.00  0.00   0.221   0.000   73.6    25   35.6   71.1   670    2    100.0   30 
12/08/22  9:30a   56.5   56.5   54.4    52   39.1   0.0   ---   0.00   0.0   ---   56.5   54.7   54.7  30.144  0.00  0.00   0.177   0.000   73.8    25   35.8   71.4   681    2    100.0   30 
12/08/22 10:00a   58.3   58.3   56.5    49   39.2   0.0   ---   0.00   0.0   ---   58.3   56.2   56.2  30.143  0.00  0.00   0.140   0.000   74.2    25   36.1   71.9   667    2    100.0   30 
12/08/22 10:30a   59.8   59.8   58.3    45   38.4   0.0   ---   0.00   0.0   ---   59.8   57.5   57.5  30.144  0.00  0.00   0.108   0.000   74.3    26   37.2   72.2   666    2     99.9   30 
12/08/22 11:00a   59.6   59.8   59.5    46   38.8   0.0   ---   0.00   0.0   ---   59.6   57.4   57.4  30.132  0.00  0.00   0.113   0.000   74.7    26   37.5   72.6   643    2     96.4   30 
12/08/22 11:30a   59.3   59.6   59.2    50   40.7   0.0   ---   0.00   0.0   ---   59.3   57.3   57.3  30.123  0.00  0.00   0.119   0.000   74.9    26   37.7   72.9   636    2     95.4   30 
12/08/22 12:00p   60.7   60.7   58.9    48   40.9   0.0   ---   0.00   0.0   ---   60.7   58.6   58.6  30.102  0.00  0.00   0.090   0.000   75.2    26   37.9   73.3   645    2     96.7   30 
12/08/22 12:30p   60.5   60.7   60.2    46   39.6   0.0   ---   0.00   0.0   ---   60.5   58.3   58.3  30.099  0.00  0.00   0.094   0.000   75.4    26   38.1   73.5   635    2     95.2   30 
12/08/22  1:00p   60.5   60.9   60.4    46   39.6   0.0   ---   0.00   0.0   ---   60.5   58.3   58.3  30.092  0.00  0.00   0.094   0.000   75.7    26   38.4   73.9   634    2     95.1   30 
12/08/22  1:30p   62.4   62.4   60.5    38   36.4   0.0   ---   0.00   0.0   ---   62.4   59.5   59.5  30.081  0.00  0.00   0.054   0.000   76.1    25   37.7   74.4   642    2     96.3   30 
12/08/22  2:00p   63.4   63.4   62.4    35   35.2   0.0   ---   0.00   0.0   ---   63.4   60.2   60.2  30.067  0.00  0.00   0.033   0.000   76.3    25   37.9   74.7   630    2     94.5   30 
12/08/22  2:30p   63.2   63.4   62.6    32   32.8   0.0   ---   0.00   0.0   ---   63.2   59.7   59.7  30.063  0.00  0.00   0.037   0.000   76.6    25   38.1   75.1   639    2     95.8   30 
12/08/22  3:00p   62.1   63.4   62.1    31   31.1   0.0   ---   0.00   0.0   ---   62.1   58.6   58.6  30.059  0.00  0.00   0.060   0.000   77.0    25   38.5   75.7   640    2     96.0   30 
12/08/22  3:30p   60.9   62.1   60.9    35   33.0   0.0   ---   0.00   0.0   ---   60.9   57.7   57.7  30.064  0.00  0.00   0.085   0.000   77.2    25   38.6   75.8   607    2     91.0   30 
12/08/22  4:00p   59.8   60.9   59.8    36   32.8   0.0   ---   0.00   0.0   ---   59.8   56.8   56.8  30.069  0.00  0.00   0.108   0.000   77.3    25   38.7   75.8   607    2     91.0   30 
12/08/22  4:30p   58.6   59.8   58.6    39   33.7   0.0   ---   0.00   0.0   ---   58.6   55.9   55.9  30.072  0.00  0.00   0.133   0.000   77.3    25   38.7   75.8   605    2     90.7   30 
12/08/22  5:00p   55.9   58.6   55.9    46   35.4   0.0   ---   0.00   0.0   ---   55.9   53.8   53.8  30.076  0.00  0.00   0.190   0.000   77.3    25   38.7   75.8   598    2     89.7   30 
12/08/22  5:30p   52.9   55.9   52.9    55   37.2   0.0   ---   0.00   0.0   ---   52.9   51.5   51.5  30.080  0.00  0.00   0.252   0.000   77.3    25   38.7   75.8   596    2     89.4   30 
12/08/22  6:00p   49.9   52.9   49.9    63   37.8   0.0   ---   0.00   0.0   ---   49.9   49.2   49.2  30.101  0.00  0.00   0.315   0.000   77.2    25   38.6   75.8   564    2     84.6   30